createdAt,value
2022-11-05T00:03:14.410Z,5.18
2022-11-05T00:13:34.561Z,4.82
2022-11-05T00:23:54.538Z,5.50
2022-11-05T00:33:55.924Z,5.43
2022-11-05T00:44:16.120Z,5.20
2022-11-05T00:54:17.553Z,5.47
2022-11-05T01:04:19.770Z,6.03
2022-11-05T01:14:21.231Z,6.32
2022-11-05T01:24:22.715Z,6.40
2022-11-05T01:34:23.968Z,6.45
2022-11-05T01:44:25.268Z,6.55
2022-11-05T01:54:26.680Z,6.60
2022-11-05T02:04:28.045Z,7.63
2022-11-05T02:14:29.456Z,7.63
2022-11-05T02:24:30.853Z,7.20
2022-11-05T02:34:32.434Z,7.00
2022-11-05T02:44:33.914Z,7.05
2022-11-05T02:54:35.318Z,8.18
2022-11-05T03:04:36.699Z,7.32
2022-11-05T03:14:38.606Z,6.93
2022-11-05T03:24:40.020Z,8.02
2022-11-05T03:34:41.401Z,6.57
2022-11-05T03:44:42.765Z,6.88
2022-11-05T03:54:44.158Z,6.40
2022-11-05T04:04:45.552Z,5.95
2022-11-05T04:14:46.903Z,6.03
2022-11-05T04:24:48.272Z,6.32
2022-11-05T04:34:49.852Z,5.50
2022-11-05T04:44:51.267Z,4.63
2022-11-05T04:54:52.504Z,5.03
2022-11-05T05:04:53.921Z,4.85
2022-11-05T05:14:55.342Z,5.18
2022-11-05T05:24:56.936Z,5.25
2022-11-05T05:34:58.516Z,5.28
2022-11-05T05:44:59.900Z,4.90
2022-11-05T05:55:01.314Z,4.57
2022-11-05T06:05:02.720Z,5.00
2022-11-05T06:15:04.027Z,4.18
2022-11-05T06:25:05.519Z,3.70
2022-11-05T06:35:07.062Z,3.85
2022-11-05T06:45:08.491Z,3.67
2022-11-05T06:55:09.923Z,3.13
2022-11-05T07:05:11.356Z,3.38
2022-11-05T07:15:12.745Z,3.47
2022-11-05T07:25:14.121Z,4.03
2022-11-05T07:35:15.552Z,3.53
2022-11-05T07:45:16.966Z,3.58
2022-11-05T07:55:18.194Z,3.40
2022-11-05T08:05:19.638Z,3.95
2022-11-05T08:15:20.881Z,3.58
2022-11-05T08:25:22.261Z,2.55
2022-11-05T08:35:23.842Z,3.05
2022-11-05T08:45:25.327Z,2.72
2022-11-05T08:55:26.679Z,3.30
2022-11-05T09:05:28.071Z,3.15
2022-11-05T09:15:29.341Z,2.60
2022-11-05T09:25:30.698Z,2.97
2022-11-05T09:35:32.125Z,3.05
2022-11-05T09:45:33.385Z,3.28
2022-11-05T09:55:34.602Z,3.35
2022-11-05T10:05:36.090Z,3.90
2022-11-05T10:15:38.205Z,3.17
2022-11-05T10:25:39.620Z,3.28
2022-11-05T10:35:41.180Z,2.55
2022-11-05T10:45:42.529Z,2.95
2022-11-05T10:55:43.890Z,2.90
2022-11-05T11:05:45.243Z,2.72
2022-11-05T11:15:46.574Z,3.35
2022-11-05T11:25:50.664Z,2.75
2022-11-05T11:35:52.262Z,2.93
2022-11-05T11:45:53.837Z,2.15
2022-11-05T11:55:55.233Z,2.38
2022-11-05T12:05:56.640Z,1.92
2022-11-05T12:15:58.012Z,1.98
2022-11-05T12:25:59.431Z,1.80
2022-11-05T12:36:04.036Z,4.50
2022-11-05T12:46:05.414Z,2.30
2022-11-05T12:56:06.780Z,2.80
2022-11-05T13:06:08.202Z,4.10
2022-11-05T13:16:09.594Z,4.70
2022-11-05T13:26:14.430Z,4.35
2022-11-05T13:36:38.528Z,3.63
2022-11-05T13:46:39.849Z,3.53
2022-11-05T13:56:41.190Z,3.28
2022-11-05T14:06:42.547Z,3.17
2022-11-05T14:16:43.780Z,3.47
2022-11-05T14:26:45.164Z,3.17
2022-11-05T14:36:46.488Z,3.60
2022-11-05T14:46:47.831Z,4.10
2022-11-05T14:56:54.885Z,3.85
2022-11-05T15:06:57.395Z,4.20
2022-11-05T15:16:58.779Z,3.90
2022-11-05T15:27:00.191Z,5.05
2022-11-05T15:37:01.505Z,4.50
2022-11-05T15:47:02.965Z,5.75
2022-11-05T15:57:04.210Z,6.05
2022-11-05T16:07:05.492Z,12.57
2022-11-05T16:17:06.868Z,12.23
2022-11-05T16:27:08.519Z,10.23
2022-11-05T16:37:09.794Z,11.30
2022-11-05T16:47:11.218Z,13.27
2022-11-05T16:57:12.491Z,15.15
2022-11-05T17:07:14.218Z,31.63
2022-11-05T17:17:15.685Z,15.68
2022-11-05T17:27:17.159Z,13.02
2022-11-05T17:37:18.495Z,10.15
2022-11-05T17:47:19.927Z,11.15
2022-11-05T17:57:21.214Z,10.20
2022-11-05T18:07:22.719Z,7.97
2022-11-05T18:17:24.159Z,11.55
2022-11-05T18:27:27.797Z,13.98
2022-11-05T18:37:29.188Z,11.82
2022-11-05T18:47:32.644Z,12.13
2022-11-05T18:57:34.566Z,29.08
2022-11-05T19:07:35.964Z,14.30
2022-11-05T19:17:37.375Z,18.88
2022-11-05T19:27:40.009Z,11.90
2022-11-05T19:37:41.292Z,12.73
2022-11-05T19:47:42.549Z,11.63
2022-11-05T19:57:45.018Z,13.80
2022-11-05T20:07:52.283Z,14.18
2022-11-05T20:17:55.060Z,13.25
2022-11-05T20:27:56.306Z,14.25
2022-11-05T20:37:57.696Z,15.13
2022-11-05T20:47:59.085Z,18.73
2022-11-05T20:58:00.408Z,30.73
2022-11-05T21:08:01.807Z,20.10
2022-11-05T21:18:03.414Z,20.00
2022-11-05T21:28:04.837Z,17.20
2022-11-05T21:38:06.260Z,12.15
2022-11-05T21:48:07.579Z,13.50
2022-11-05T21:58:27.644Z,12.77
2022-11-05T22:08:29.004Z,14.27
2022-11-05T22:18:30.573Z,12.55
2022-11-05T22:28:32.003Z,12.88
2022-11-05T22:38:33.414Z,11.40
2022-11-05T22:48:34.794Z,11.55
2022-11-05T22:58:36.045Z,10.85
2022-11-05T23:08:55.974Z,12.95
2022-11-05T23:19:15.973Z,12.38
2022-11-05T23:29:17.283Z,14.50
2022-11-05T23:39:18.653Z,14.00
2022-11-05T23:49:20.088Z,14.18
2022-11-05T23:59:21.459Z,15.13
